Terminal Aerodrome Forecast
Issued by NWS

Home | Current Version | Previous Version | Text Only | Print | Product List | Glossary On
Versions: 1 2 3 4 5 6 7 8 9 10 11 12 13 14 15 16 17 18 19 20 21 22 23 24 25 26 27 28 29 30 31
000
FTUS44 KEWX 221302 AAA
TAFSSF
TAF AMD
KSSF 221302Z 2213/2312 14004KT 2SM BR OVC002
     FM221500 15008KT 4SM BR OVC005
     FM221700 16010KT P6SM OVC015
     FM221900 15013KT P6SM SCT050
     FM230700 14005KT P6SM OVC015
     FM231000 15004KT 2SM BR OVC007=

USA.gov is the U.S. government's official web portal to all federal, state and local government web resources and services.